East Bremerton, Washington
Current Conditions -  °F | °C
As of 3:35 AM on Saturday 22 Nov 2014 (Local Time) from KPWT Reporting Station
Clear Clear  
Wind Chill: 33°   Ceiling: Unl
Heat Index: 39°   Visibility: 10mi
Dew Point: 37°   Wind: 9mph
Humidity: 93%   Direction: 190°S
Pressure: 29.65"   Gusts: NA
Location:  47.5964°N, 122.62°W
Report Text: KPWT 221135Z AUTO 19008KT 10SM CLR 04/03 A2965 RMK AO1
Loading
Personal Weather Stations






























Interactive Weather Map New forecast layout! Learn more

10-Day Weather Forecast

Advertisements
Track Severe Weather on mobile